createdAt,value
2022-10-14T00:01:23.825Z,101501.47
2022-10-14T00:03:53.141Z,101508.50
2022-10-14T00:06:25.706Z,101503.25
2022-10-14T00:08:53.946Z,101499.72
2022-10-14T00:11:24.859Z,101496.25
2022-10-14T00:13:56.205Z,101497.13
2022-10-14T00:16:27.400Z,101491.84
2022-10-14T00:18:55.540Z,101496.22
2022-10-14T00:21:25.280Z,101496.22
2022-10-14T00:23:53.432Z,101495.34
2022-10-14T00:26:24.412Z,101506.78
2022-10-14T00:28:54.101Z,101498.88
2022-10-14T00:31:22.471Z,101500.59
2022-10-14T00:33:50.835Z,101506.78
2022-10-14T00:36:21.381Z,101503.25
2022-10-14T00:38:51.963Z,101506.78
2022-10-14T00:41:26.102Z,101514.69
2022-10-14T00:44:00.434Z,101513.81
2022-10-14T00:46:30.757Z,101513.81
2022-10-14T00:49:00.054Z,101506.78
2022-10-14T00:51:28.874Z,101498.84
2022-10-14T00:53:58.447Z,101503.25
2022-10-14T00:56:30.570Z,101510.28
2022-10-14T00:58:59.678Z,101508.50
2022-10-14T01:01:27.896Z,101511.16
2022-10-14T01:03:56.250Z,101507.63
2022-10-14T01:06:43.489Z,101501.50
2022-10-14T01:09:22.310Z,101503.25
2022-10-14T01:12:27.574Z,101499.75
2022-10-14T01:15:04.689Z,101491.84
2022-10-14T01:17:49.256Z,101500.63
2022-10-14T01:20:48.015Z,101489.19
2022-10-14T01:24:01.206Z,101481.28
2022-10-14T01:26:58.005Z,101477.78
2022-10-14T01:30:13.755Z,101472.53
2022-10-14T01:32:54.114Z,101469.03
2022-10-14T01:35:32.375Z,101478.66
2022-10-14T01:38:05.219Z,101469.91
2022-10-14T01:40:37.992Z,101465.50
2022-10-14T01:43:08.053Z,101476.00
2022-10-14T01:45:42.431Z,101470.75
2022-10-14T01:48:12.638Z,101460.22
2022-10-14T01:50:44.338Z,101458.47
2022-10-14T01:53:17.897Z,101452.31
2022-10-14T01:55:48.529Z,101460.22
2022-10-14T01:58:18.997Z,101457.59
2022-10-14T02:00:48.856Z,101456.69
2022-10-14T02:03:16.967Z,101454.91
2022-10-14T02:05:53.378Z,101452.28
2022-10-14T02:08:30.199Z,101448.75
2022-10-14T02:11:12.551Z,101445.25
2022-10-14T02:14:11.195Z,101450.53
2022-10-14T02:16:50.059Z,101447.88
2022-10-14T02:19:29.293Z,101447.03
2022-10-14T02:22:04.847Z,101449.66
2022-10-14T02:24:37.203Z,101453.16
2022-10-14T02:27:10.651Z,101454.00
2022-10-14T02:29:41.948Z,101450.50
2022-10-14T02:32:12.448Z,101449.63
2022-10-14T02:34:42.359Z,101449.63
2022-10-14T02:37:11.552Z,101454.00
2022-10-14T02:39:45.429Z,101447.00
2022-10-14T02:42:13.618Z,101444.38
2022-10-14T02:44:54.501Z,101456.63
2022-10-14T02:47:24.894Z,101448.72
2022-10-14T02:49:53.724Z,101444.34
2022-10-14T02:52:22.419Z,101446.09
2022-10-14T02:54:50.743Z,101445.22
2022-10-14T02:57:18.818Z,101448.72
2022-10-14T02:59:46.964Z,101445.22
2022-10-14T03:02:15.177Z,101446.09
2022-10-14T03:04:44.728Z,101449.59
2022-10-14T03:07:12.894Z,101438.19
2022-10-14T03:09:40.972Z,101445.19
2022-10-14T03:12:09.250Z,101444.28
2022-10-14T03:14:37.378Z,101439.91
2022-10-14T03:17:06.108Z,101433.75
2022-10-14T03:19:34.178Z,101438.09
2022-10-14T03:22:03.646Z,101445.09
2022-10-14T03:24:31.766Z,101454.72
2022-10-14T03:26:59.895Z,101456.47
2022-10-14T03:29:27.974Z,101443.31
2022-10-14T03:31:56.175Z,101447.69
2022-10-14T03:34:24.393Z,101447.66
2022-10-14T03:36:52.476Z,101444.19
2022-10-14T03:39:21.932Z,101441.53
2022-10-14T03:41:50.011Z,101441.53
2022-10-14T03:44:18.087Z,101441.53
2022-10-14T03:46:46.258Z,101438.91
2022-10-14T03:49:14.470Z,101448.56
2022-10-14T03:51:42.534Z,101445.03
2022-10-14T03:54:10.649Z,101446.81
2022-10-14T03:56:40.099Z,101440.66
2022-10-14T03:59:08.260Z,101447.66
2022-10-14T04:01:36.385Z,101443.28
2022-10-14T04:04:04.590Z,101440.69
2022-10-14T04:06:32.691Z,101435.41
2022-10-14T04:09:00.736Z,101438.06
2022-10-14T04:11:28.824Z,101439.81
2022-10-14T04:14:01.177Z,101426.66
2022-10-14T04:16:29.250Z,101437.19
2022-10-14T04:18:58.680Z,101431.91
2022-10-14T04:21:26.763Z,101437.19
2022-10-14T04:23:54.880Z,101449.44
2022-10-14T04:26:22.943Z,101445.94
2022-10-14T04:28:51.153Z,101445.06
2022-10-14T04:31:22.541Z,101447.72
2022-10-14T04:33:50.636Z,101431.94
2022-10-14T04:36:18.777Z,101439.84
2022-10-14T04:38:46.966Z,101431.06
2022-10-14T04:41:15.054Z,101436.34
2022-10-14T04:43:43.177Z,101433.69
2022-10-14T04:46:11.206Z,101431.06
2022-10-14T04:48:40.642Z,101429.31
2022-10-14T04:51:08.755Z,101420.56
2022-10-14T04:53:36.795Z,101431.06
2022-10-14T04:56:05.249Z,101418.78
2022-10-14T04:58:33.324Z,101415.25
2022-10-14T05:01:01.490Z,101417.03
2022-10-14T05:03:29.631Z,101413.53
2022-10-14T05:06:00.636Z,101414.38
2022-10-14T05:08:28.865Z,101409.13
2022-10-14T05:10:56.953Z,101408.25
2022-10-14T05:13:25.062Z,101407.41
2022-10-14T05:15:53.190Z,101405.63
2022-10-14T05:18:21.252Z,101400.41
2022-10-14T05:20:49.530Z,101402.13
2022-10-14T05:23:19.502Z,101399.53
2022-10-14T05:25:48.140Z,101397.78
2022-10-14T05:28:16.342Z,101389.00
2022-10-14T05:30:44.825Z,101387.28
2022-10-14T05:33:13.440Z,101382.91
2022-10-14T05:35:58.169Z,101375.88
2022-10-14T05:38:28.800Z,101375.00
2022-10-14T05:40:58.627Z,101375.88
2022-10-14T05:43:31.815Z,101371.50
2022-10-14T05:46:00.617Z,101361.00
2022-10-14T05:48:28.865Z,101353.97
2022-10-14T05:51:01.350Z,101348.72
2022-10-14T05:53:32.445Z,101349.63
2022-10-14T05:56:08.817Z,101346.09
2022-10-14T05:58:36.960Z,101343.47
2022-10-14T06:01:08.003Z,101348.72
2022-10-14T06:03:36.548Z,101341.72
2022-10-14T06:06:08.424Z,101344.38
2022-10-14T06:08:37.957Z,101340.84
2022-10-14T06:11:07.426Z,101336.47
2022-10-14T06:13:36.272Z,101338.25
2022-10-14T06:16:05.649Z,101331.22
2022-10-14T06:18:33.851Z,101330.31
2022-10-14T06:21:02.401Z,101324.22
2022-10-14T06:23:30.612Z,101324.22
2022-10-14T06:26:00.177Z,101323.34
2022-10-14T06:28:28.395Z,101325.97
2022-10-14T06:30:56.811Z,101318.09
2022-10-14T06:33:24.976Z,101318.06
2022-10-14T06:35:53.077Z,101328.59
2022-10-14T06:38:21.128Z,101323.34
2022-10-14T06:40:52.449Z,101329.47
2022-10-14T06:43:22.786Z,101332.13
2022-10-14T06:45:52.667Z,101322.47
2022-10-14T06:48:20.725Z,101329.47
2022-10-14T06:50:48.808Z,101324.22
2022-10-14T06:53:16.854Z,101318.97
2022-10-14T06:55:45.134Z,101319.88
2022-10-14T06:58:13.168Z,101320.72
2022-10-14T07:00:47.200Z,101311.97
2022-10-14T07:03:16.377Z,101318.09
2022-10-14T07:05:44.511Z,101306.69
2022-10-14T07:08:15.293Z,101312.84
2022-10-14T07:10:44.028Z,101319.84
2022-10-14T07:13:12.120Z,101319.84
2022-10-14T07:15:42.022Z,101329.47
2022-10-14T07:18:10.515Z,101334.78
2022-10-14T07:20:38.607Z,101343.56
2022-10-14T07:23:06.695Z,101336.53
2022-10-14T07:25:34.812Z,101337.38
2022-10-14T07:28:02.940Z,101332.97
2022-10-14T07:30:31.098Z,101338.25
2022-10-14T07:33:02.594Z,101334.72
2022-10-14T07:35:30.992Z,101324.16
2022-10-14T07:38:00.654Z,101328.47
2022-10-14T07:40:29.031Z,101327.56
2022-10-14T07:42:57.334Z,101337.22
2022-10-14T07:45:25.513Z,101339.81
2022-10-14T07:47:53.635Z,101333.66
2022-10-14T07:50:23.184Z,101343.31
2022-10-14T07:52:51.287Z,101341.53
2022-10-14T07:55:19.457Z,101344.16
2022-10-14T07:57:47.614Z,101338.91
2022-10-14T08:00:15.999Z,101338.00
2022-10-14T08:02:44.967Z,101342.41
2022-10-14T08:05:36.459Z,101337.13
2022-10-14T08:08:02.437Z,101341.53
2022-10-14T08:10:32.166Z,101337.97
2022-10-14T08:13:00.267Z,101341.47
2022-10-14T08:15:29.945Z,101339.72
2022-10-14T08:17:58.050Z,101341.44
2022-10-14T08:20:26.249Z,101335.25
2022-10-14T08:22:54.328Z,101331.66
2022-10-14T08:25:23.835Z,101325.41
2022-10-14T08:27:54.115Z,101321.84
2022-10-14T08:30:22.664Z,101321.72
2022-10-14T08:32:51.112Z,101314.59
2022-10-14T08:35:19.340Z,101310.09
2022-10-14T08:37:58.087Z,101302.06
2022-10-14T08:40:29.919Z,101302.94
2022-10-14T08:43:04.442Z,101293.22
2022-10-14T08:45:38.672Z,101297.56
2022-10-14T08:48:14.067Z,101288.66
2022-10-14T08:50:47.960Z,101296.53
2022-10-14T08:53:19.577Z,101294.69
2022-10-14T08:55:52.689Z,101299.91
2022-10-14T09:01:08.708Z,101285.78
2022-10-14T09:03:39.538Z,101283.16
2022-10-14T09:06:15.003Z,101282.22
2022-10-14T09:08:46.219Z,101285.69
2022-10-14T09:11:19.683Z,101281.28
2022-10-14T09:13:52.017Z,101277.69
2022-10-14T09:16:23.605Z,101282.91
2022-10-14T09:18:55.875Z,101276.69
2022-10-14T09:21:51.546Z,101274.00
2022-10-14T09:24:23.715Z,101274.91
2022-10-14T09:26:58.551Z,101276.69
2022-10-14T09:29:29.421Z,101276.72
2022-10-14T09:32:01.067Z,101271.34
2022-10-14T09:34:35.029Z,101276.38
2022-10-14T09:37:24.645Z,101274.31
2022-10-14T09:39:55.864Z,101282.88
2022-10-14T09:42:29.560Z,101283.63
2022-10-14T09:45:10.558Z,101276.53
2022-10-14T09:47:47.017Z,101275.53
2022-10-14T09:50:24.974Z,101267.59
2022-10-14T09:52:59.236Z,101272.00
2022-10-14T09:55:27.376Z,101264.88
2022-10-14T09:58:14.067Z,101264.09
2022-10-14T10:00:43.127Z,101253.66
2022-10-14T10:03:28.016Z,101254.56
2022-10-14T10:06:06.723Z,101247.56
2022-10-14T10:08:39.023Z,101242.34
2022-10-14T10:11:10.570Z,101246.00
2022-10-14T10:13:44.629Z,101245.22
2022-10-14T10:16:26.113Z,101238.19
2022-10-14T10:18:57.209Z,101237.34
2022-10-14T10:21:27.535Z,101233.91
2022-10-14T10:23:59.158Z,101233.06
2022-10-14T10:26:30.628Z,101226.97
2022-10-14T10:29:02.663Z,101224.41
2022-10-14T10:32:02.638Z,101216.63
2022-10-14T10:35:12.329Z,101208.75
2022-10-14T10:37:50.477Z,101196.47
2022-10-14T10:40:33.151Z,101211.31
2022-10-14T10:43:20.229Z,101205.91
2022-10-14T10:46:05.328Z,101201.47
2022-10-14T10:48:43.829Z,101197.91
2022-10-14T10:51:19.811Z,101192.63
2022-10-14T10:54:02.729Z,101189.19
2022-10-14T10:56:42.949Z,101183.19
2022-10-14T10:59:56.256Z,101176.28
2022-10-14T11:03:03.284Z,101171.94
2022-10-14T11:05:50.162Z,101176.34
2022-10-14T11:09:07.580Z,101162.25
2022-10-14T11:12:05.743Z,101157.88
2022-10-14T11:17:59.929Z,101153.44
2022-10-14T11:20:38.644Z,101151.63
2022-10-14T11:23:36.289Z,101148.09
2022-10-14T11:26:14.741Z,101139.31
2022-10-14T11:28:51.313Z,101141.97
2022-10-14T11:31:33.547Z,101147.31
2022-10-14T11:34:24.093Z,101135.91
2022-10-14T11:37:06.262Z,101135.97
2022-10-14T11:39:41.538Z,101127.19
2022-10-14T11:42:24.748Z,101123.69
2022-10-14T11:45:08.523Z,101118.41
2022-10-14T11:47:40.774Z,101119.16
2022-10-14T11:50:19.170Z,101114.63
2022-10-14T11:52:55.227Z,101108.47
2022-10-14T11:55:26.153Z,101099.59
2022-10-14T11:58:00.276Z,101096.94
2022-10-14T12:00:33.141Z,101089.91
2022-10-14T12:03:10.931Z,101094.38
2022-10-14T12:05:46.984Z,101082.13
2022-10-14T12:08:27.035Z,101088.25
2022-10-14T12:11:03.650Z,101077.69
2022-10-14T12:13:38.567Z,101075.03
2022-10-14T12:16:13.900Z,101077.59
2022-10-14T12:18:44.181Z,101078.47
2022-10-14T12:21:22.573Z,101069.69
2022-10-14T12:23:56.589Z,101058.31
2022-10-14T12:26:48.441Z,101053.13
2022-10-14T12:29:21.480Z,101051.41
2022-10-14T12:31:54.646Z,101044.31
2022-10-14T12:34:34.815Z,101045.13
2022-10-14T12:37:54.285Z,101036.25
2022-10-14T12:40:30.156Z,101027.44
2022-10-14T12:43:20.505Z,101033.59
2022-10-14T12:45:54.536Z,101026.59
2022-10-14T12:48:25.252Z,101025.75
2022-10-14T12:50:59.313Z,101023.13
2022-10-14T12:53:32.010Z,101017.03
2022-10-14T12:56:02.510Z,101013.47
2022-10-14T12:58:34.669Z,101017.84
2022-10-14T13:01:08.355Z,101011.72
2022-10-14T13:03:45.360Z,101012.63
2022-10-14T13:06:39.871Z,101009.97
2022-10-14T13:09:37.081Z,101009.06
2022-10-14T13:12:46.816Z,101003.75
2022-10-14T13:15:51.030Z,101001.06
2022-10-14T13:18:53.197Z,100994.81
2022-10-14T13:21:32.185Z,100991.22
2022-10-14T13:24:02.789Z,100988.44
2022-10-14T13:26:43.213Z,100980.47
2022-10-14T13:29:24.276Z,100979.53
2022-10-14T13:32:01.693Z,100971.53
2022-10-14T13:34:48.315Z,100965.28
2022-10-14T13:37:34.792Z,100965.22
2022-10-14T13:40:21.172Z,100966.06
2022-10-14T13:42:55.924Z,100963.34
2022-10-14T13:45:31.929Z,100956.25
2022-10-14T13:48:01.261Z,100950.09
2022-10-14T13:50:37.892Z,100951.81
2022-10-14T13:53:10.537Z,100943.88
2022-10-14T13:55:50.247Z,100941.25
2022-10-14T13:58:25.129Z,100942.09
2022-10-14T14:01:04.279Z,100927.97
2022-10-14T14:03:37.245Z,100932.34
2022-10-14T14:06:13.225Z,100928.78
2022-10-14T14:08:49.085Z,100923.50
2022-10-14T14:11:24.392Z,100922.50
2022-10-14T14:14:07.954Z,100920.69
2022-10-14T14:16:41.301Z,100916.16
2022-10-14T14:19:20.613Z,100908.13
2022-10-14T14:21:48.813Z,100903.63
2022-10-14T14:24:25.094Z,100903.50
2022-10-14T14:26:57.465Z,100898.91
2022-10-14T14:29:30.520Z,100902.25
2022-10-14T14:32:06.775Z,100898.66
2022-10-14T14:34:38.052Z,100888.06
2022-10-14T14:40:00.529Z,100882.88
2022-10-14T14:42:32.409Z,100882.84
2022-10-14T14:45:16.874Z,100885.44
2022-10-14T14:47:45.909Z,100880.09
2022-10-14T14:50:32.095Z,100874.75
2022-10-14T14:53:04.978Z,100878.19
2022-10-14T14:55:46.226Z,100872.78
2022-10-14T14:58:26.467Z,100883.28
2022-10-14T15:00:56.910Z,100867.31
2022-10-14T15:03:27.900Z,100876.94
2022-10-14T15:06:00.982Z,100866.41
2022-10-14T15:08:33.176Z,100858.50
2022-10-14T15:11:02.612Z,100857.69
2022-10-14T15:13:49.994Z,100860.41
2022-10-14T15:16:41.574Z,100860.56
2022-10-14T15:19:35.701Z,100857.09
2022-10-14T15:22:34.924Z,100853.63
2022-10-14T15:25:12.017Z,100858.03
2022-10-14T15:27:52.450Z,100855.44
2022-10-14T15:30:37.930Z,100845.72
2022-10-14T15:33:16.633Z,100845.72
2022-10-14T15:35:46.797Z,100842.25
2022-10-14T15:38:18.206Z,100837.13
2022-10-14T15:40:50.039Z,100830.28
2022-10-14T15:43:21.509Z,100833.13
2022-10-14T15:46:12.642Z,100837.69
2022-10-14T15:48:49.558Z,100838.75
2022-10-14T15:51:19.636Z,100827.31
2022-10-14T15:53:49.196Z,100816.63
2022-10-14T15:56:17.729Z,100820.19
2022-10-14T15:58:45.778Z,100825.38
2022-10-14T16:01:20.393Z,100821.81
2022-10-14T16:03:53.111Z,100813.84
2022-10-14T16:06:22.654Z,100806.75
2022-10-14T16:08:51.347Z,100797.03
2022-10-14T16:11:24.136Z,100796.22
2022-10-14T16:13:52.240Z,100803.25
2022-10-14T16:16:26.299Z,100795.38
2022-10-14T16:18:55.991Z,100798.03
2022-10-14T16:21:24.109Z,100798.94
2022-10-14T16:23:53.750Z,100797.25
2022-10-14T16:26:21.886Z,100789.31
2022-10-14T16:28:50.121Z,100795.56
2022-10-14T16:31:18.765Z,100790.28
2022-10-14T16:33:47.128Z,100784.16
2022-10-14T16:36:17.469Z,100785.94
2022-10-14T16:38:45.849Z,100787.72
2022-10-14T16:41:14.115Z,100793.91
2022-10-14T16:43:42.593Z,100784.16
2022-10-14T16:46:15.482Z,100778.00
2022-10-14T16:48:44.529Z,100780.63
2022-10-14T16:51:15.362Z,100771.84
2022-10-14T16:53:46.713Z,100768.28
2022-10-14T16:56:35.116Z,100772.75
2022-10-14T16:59:04.061Z,100772.81
2022-10-14T17:01:32.802Z,100772.81
2022-10-14T17:04:01.118Z,100772.81
2022-10-14T17:06:29.214Z,100778.97
2022-10-14T17:08:58.713Z,100771.09
2022-10-14T17:11:28.087Z,100768.47
2022-10-14T17:13:57.959Z,100779.03
2022-10-14T17:16:27.062Z,100778.19
2022-10-14T17:18:55.647Z,100774.69
2022-10-14T17:21:24.284Z,100769.44
2022-10-14T17:23:52.363Z,100774.75
2022-10-14T17:26:22.060Z,100772.19
2022-10-14T17:28:50.666Z,100770.50
2022-10-14T17:31:22.867Z,100780.25
2022-10-14T17:33:52.596Z,100772.41
2022-10-14T17:36:23.233Z,100769.00
2022-10-14T17:38:53.120Z,100765.53
2022-10-14T17:41:23.497Z,100767.41
2022-10-14T17:43:52.050Z,100763.91
2022-10-14T17:46:23.465Z,100765.72
2022-10-14T17:48:54.284Z,100771.88
2022-10-14T17:51:25.064Z,100780.72
2022-10-14T17:53:58.366Z,100780.75
2022-10-14T17:56:30.359Z,100782.53
2022-10-14T17:59:00.741Z,100774.69
2022-10-14T18:01:37.400Z,100778.28
2022-10-14T18:04:07.997Z,100773.97
2022-10-14T18:06:37.263Z,100771.44
2022-10-14T18:09:09.045Z,100767.16
2022-10-14T18:12:07.820Z,100765.44
2022-10-14T18:14:31.300Z,100762.81
2022-10-14T18:16:59.847Z,100755.72
2022-10-14T18:19:28.434Z,100757.44
2022-10-14T18:21:56.515Z,100763.56
2022-10-14T18:24:24.770Z,100756.50
2022-10-14T18:26:54.651Z,100762.63
2022-10-14T18:29:24.315Z,100757.34
2022-10-14T18:34:27.265Z,100750.34
2022-10-14T18:36:57.607Z,100756.53
2022-10-14T18:39:26.994Z,100752.16
2022-10-14T18:41:56.879Z,100762.81
2022-10-14T18:44:24.897Z,100748.75
2022-10-14T18:46:53.380Z,100744.47
2022-10-14T18:49:21.660Z,100748.91
2022-10-14T18:51:50.560Z,100751.56
2022-10-14T18:54:22.232Z,100747.22
2022-10-14T18:56:50.510Z,100748.19
2022-10-14T18:59:23.074Z,100738.56
2022-10-14T19:01:53.480Z,100753.63
2022-10-14T19:04:26.830Z,100757.19
2022-10-14T19:06:55.421Z,100757.22
2022-10-14T19:09:29.654Z,100751.16
2022-10-14T19:11:59.279Z,100755.53
2022-10-14T19:14:31.738Z,100760.88
2022-10-14T19:16:59.864Z,100754.78
2022-10-14T19:19:28.049Z,100760.13
2022-10-14T19:21:59.489Z,100768.06
2022-10-14T19:24:27.998Z,100754.09
2022-10-14T19:26:58.252Z,100759.44
2022-10-14T19:29:27.723Z,100761.25
2022-10-14T19:31:55.862Z,100765.72
2022-10-14T19:34:27.064Z,100764.88
2022-10-14T19:36:55.544Z,100762.28
2022-10-14T19:39:23.676Z,100757.91
2022-10-14T19:41:51.757Z,100767.53
2022-10-14T19:44:20.220Z,100755.28
2022-10-14T19:46:49.698Z,100751.78
2022-10-14T19:49:18.059Z,100753.56
2022-10-14T19:51:46.172Z,100752.72
2022-10-14T19:54:15.184Z,100757.16
2022-10-14T19:56:43.917Z,100755.44
2022-10-14T19:59:13.484Z,100751.03
2022-10-14T20:01:42.635Z,100738.75
2022-10-14T20:04:12.566Z,100741.41
2022-10-14T20:06:41.944Z,100749.38
2022-10-14T20:09:13.546Z,100734.44
2022-10-14T20:11:42.236Z,100735.34
2022-10-14T20:14:10.346Z,100734.47
2022-10-14T20:16:38.521Z,100733.59
2022-10-14T20:19:06.972Z,100729.22
2022-10-14T20:21:36.422Z,100730.16
2022-10-14T20:24:05.083Z,100734.56
2022-10-14T20:26:33.250Z,100731.94
2022-10-14T20:29:01.398Z,100734.63
2022-10-14T20:31:29.491Z,100732.88
2022-10-14T20:33:58.378Z,100733.81
2022-10-14T20:36:26.526Z,100736.44
2022-10-14T20:38:56.349Z,100740.88
2022-10-14T20:41:26.781Z,100743.50
2022-10-14T20:43:56.418Z,100735.66
2022-10-14T20:46:25.450Z,100736.53
2022-10-14T20:48:57.340Z,100735.66
2022-10-14T20:51:25.592Z,100733.94
2022-10-14T20:54:01.811Z,100727.78
2022-10-14T20:56:33.570Z,100728.66
2022-10-14T20:59:04.859Z,100728.66
2022-10-14T21:01:33.892Z,100726.91
2022-10-14T21:04:03.314Z,100714.63
2022-10-14T21:06:32.297Z,100717.28
2022-10-14T21:09:02.368Z,100727.00
2022-10-14T21:11:30.537Z,100726.13
2022-10-14T21:14:01.613Z,100730.53
2022-10-14T21:16:31.677Z,100729.69
2022-10-14T21:19:02.894Z,100729.69
2022-10-14T21:21:35.729Z,100735.03
2022-10-14T21:24:06.318Z,100735.94
2022-10-14T21:26:34.707Z,100738.59
2022-10-14T21:29:04.470Z,100737.72
2022-10-14T21:31:33.576Z,100732.44
2022-10-14T21:34:06.057Z,100735.13
2022-10-14T21:36:35.697Z,100729.88
2022-10-14T21:39:11.584Z,100727.25
2022-10-14T21:41:46.867Z,100729.94
2022-10-14T21:44:19.718Z,100724.69
2022-10-14T21:46:48.833Z,100731.72
2022-10-14T21:49:22.783Z,100738.75
2022-10-14T21:51:58.595Z,100735.28
2022-10-14T21:54:28.620Z,100738.78
2022-10-14T21:59:30.601Z,100732.66
2022-10-14T22:01:59.256Z,100735.34
2022-10-14T22:04:28.207Z,100728.31
2022-10-14T22:06:56.463Z,100732.72
2022-10-14T22:09:24.935Z,100725.66
2022-10-14T22:11:58.145Z,100723.03
2022-10-14T22:14:29.312Z,100727.47
2022-10-14T22:16:57.663Z,100727.50
2022-10-14T22:19:26.604Z,100723.09
2022-10-14T22:21:55.104Z,100723.09
2022-10-14T22:24:23.525Z,100728.38
2022-10-14T22:26:52.710Z,100724.00
2022-10-14T22:29:22.639Z,100721.38
2022-10-14T22:31:50.969Z,100724.91
2022-10-14T22:34:19.742Z,100719.63
2022-10-14T22:36:48.209Z,100713.53
2022-10-14T22:39:18.686Z,100719.69
2022-10-14T22:41:49.841Z,100719.69
2022-10-14T22:44:23.195Z,100719.69
2022-10-14T22:49:33.928Z,100715.34
2022-10-14T22:52:18.817Z,100713.69
2022-10-14T22:55:02.035Z,100718.03
2022-10-14T22:57:49.809Z,100713.63
2022-10-14T23:00:27.148Z,100696.16
2022-10-14T23:03:01.309Z,100700.53
2022-10-14T23:05:33.364Z,100683.94
2022-10-14T23:08:19.016Z,100699.66
2022-10-14T23:10:50.477Z,100687.47
2022-10-14T23:13:23.961Z,100693.59
2022-10-14T23:16:14.068Z,100679.69
2022-10-14T23:18:50.111Z,100680.63
2022-10-14T23:21:30.040Z,100690.22
2022-10-14T23:24:01.003Z,100696.38
2022-10-14T23:26:39.878Z,100699.00
2022-10-14T23:29:12.897Z,100692.09
2022-10-14T23:31:47.018Z,100698.25
2022-10-14T23:34:18.883Z,100696.56
2022-10-14T23:36:52.175Z,100699.19
2022-10-14T23:39:30.524Z,100693.13
2022-10-14T23:42:02.534Z,100697.47
2022-10-14T23:44:35.433Z,100697.47
2022-10-14T23:47:06.168Z,100691.34
2022-10-14T23:49:43.562Z,100695.63
2022-10-14T23:52:12.104Z,100692.16
2022-10-14T23:54:42.911Z,100696.41
2022-10-14T23:57:12.644Z,100693.81
2022-10-14T23:59:40.988Z,100690.25
